Time;durP1;ratioP1;P1;durP2;ratioP2;P2;SDS_P1;SDS_P2;PMS_P1;PMS_P2;Temp;Humidity;BMP_temperature;BMP_pressure;BME280_temperature;BME280_humidity;BME280_pressure;Samples;Min_cycle;Max_cycle;Signal;HPM_P1;HPM_P2
2021/06/06 00:01:17;;;;;;;;;;;;;;;26.45;43.01;100248.53;5238888;27;33509;-86
2021/06/06 00:03:56;;;;;;;;;;;;;;;27.32;40.70;100244.22;5242226;27;35464;-86
2021/06/06 00:06:30;;;;;;;;;;;;;;;26.61;42.21;100242.66;5240111;27;34299;-85
2021/06/06 00:09:00;;;;;;;;;;;;;;;26.87;41.36;100243.97;5238129;27;33475;-85
2021/06/06 00:11:33;;;;;;;;;;;;;;;26.41;42.43;100247.13;5222291;27;33713;-86
2021/06/06 00:14:05;;;;;;;;;;;;;;;26.27;42.86;100248.38;5239847;27;34253;-87
2021/06/06 00:16:38;;;;;;;;;;;;;;;26.96;41.25;100252.00;5221549;27;33462;-86
2021/06/06 00:19:09;;;;;;;;;;;;;;;26.52;42.08;100242.66;5239987;27;34250;-85
2021/06/06 00:21:38;;;;;;;;;;;;;;;26.71;41.37;100248.06;5231828;27;36636;-86
2021/06/06 00:24:09;;;;;;;;;;;;;;;26.04;42.86;100246.91;5249665;27;33871;-86
2021/06/06 00:26:40;;;;;;;;;;;;;;;26.62;41.25;100249.69;5250174;27;34224;-87
2021/06/06 00:29:12;;;;;;;;;;;;;;;26.70;40.82;100245.47;5239574;27;33587;-86
2021/06/06 00:31:40;;;;;;;;;;;;;;;26.10;42.18;100251.69;5256644;27;33331;-86
2021/06/06 00:34:13;;;;;;;;;;;;;;;26.89;40.49;100247.34;5222188;27;34300;-86
2021/06/06 00:36:43;;;;;;;;;;;;;;;26.92;40.27;100245.22;5239723;27;34215;-86
2021/06/06 00:39:15;;;;;;;;;;;;;;;26.95;39.93;100242.28;5222605;27;33285;-86
2021/06/06 00:41:47;;;;;;;;;;;;;;;26.82;40.10;100242.56;5239683;27;34936;-87
2021/06/06 00:44:24;;;;;;;;;;;;;;;26.41;41.11;100232.94;5222233;27;33813;-86
2021/06/06 00:46:58;;;;;;;;;;;;;;;26.85;40.28;100225.41;5222373;27;34373;-86
2021/06/06 00:49:30;;;;;;;;;;;;;;;26.59;40.79;100225.06;5222238;27;33639;-85
2021/06/06 00:52:03;;;;;;;;;;;;;;;26.46;41.19;100220.84;5256890;27;33514;-86
2021/06/06 00:54:39;;;;;;;;;;;;;;;26.33;41.37;100218.44;5221632;27;33960;-86
2021/06/06 00:57:11;;;;;;;;;;;;;;;26.34;41.33;100212.12;5221758;27;34442;-86
2021/06/06 00:59:46;;;;;;;;;;;;;;;26.23;41.58;100211.41;5239031;27;33946;-86
2021/06/06 01:02:17;;;;;;;;;;;;;;;27.03;39.71;100213.97;5221562;27;35251;-86
2021/06/06 01:04:50;;;;;;;;;;;;;;;26.52;40.79;100211.44;5222681;27;34241;-86
2021/06/06 01:07:24;;;;;;;;;;;;;;;25.66;42.85;100210.06;5239191;27;34425;-87
2021/06/06 01:09:57;;;;;;;;;;;;;;;26.20;41.76;100217.84;5238694;27;32786;-86
2021/06/06 01:12:33;;;;;;;;;;;;;;;26.41;41.36;100211.56;5239059;27;33669;-86
2021/06/06 01:15:11;;;;;;;;;;;;;;;26.44;41.26;100211.28;5240867;27;34968;-86
2021/06/06 01:17:47;;;;;;;;;;;;;;;26.22;41.39;100212.38;5222558;27;34905;-86
2021/06/06 01:20:25;;;;;;;;;;;;;;;26.28;41.34;100211.84;5221949;27;33058;-86
2021/06/06 01:23:05;;;;;;;;;;;;;;;26.07;41.87;100214.59;5239361;27;33753;-85
2021/06/06 01:25:42;;;;;;;;;;;;;;;25.65;42.83;100213.72;5240832;27;34147;-87
2021/06/06 01:28:14;;;;;;;;;;;;;;;25.83;42.54;100221.09;5240412;27;34700;-86
2021/06/06 01:30:47;;;;;;;;;;;;;;;25.91;42.37;100220.41;5275972;27;33238;-86
2021/06/06 01:33:18;;;;;;;;;;;;;;;25.98;42.30;100221.53;5220896;27;34106;-86
2021/06/06 01:35:59;;;;;;;;;;;;;;;25.60;43.11;100212.44;5222770;27;34319;-86
2021/06/06 01:38:45;;;;;;;;;;;;;;;25.52;43.38;100223.75;5257032;27;34529;-85
2021/06/06 01:41:19;;;;;;;;;;;;;;;26.00;42.08;100208.91;5240143;27;33818;-85
2021/06/06 01:43:54;;;;;;;;;;;;;;;25.86;42.07;100207.50;5222021;27;33042;-87
2021/06/06 01:46:31;;;;;;;;;;;;;;;25.85;42.09;100208.47;5222256;27;33516;-86
2021/06/06 01:49:06;;;;;;;;;;;;;;;25.63;42.36;100213.03;5239014;27;33917;-86
2021/06/06 01:51:46;;;;;;;;;;;;;;;25.67;42.20;100202.91;5241090;27;32838;-86
2021/06/06 01:54:22;;;;;;;;;;;;;;;26.21;41.08;100203.53;5223966;27;33981;-86
2021/06/06 01:56:55;;;;;;;;;;;;;;;26.16;41.08;100197.75;5223066;27;34509;-86
2021/06/06 01:59:35;;;;;;;;;;;;;;;26.00;41.43;100196.41;5224206;27;33031;-86
2021/06/06 02:02:06;;;;;;;;;;;;;;;25.62;42.27;100199.78;5240282;27;32353;-86
2021/06/06 02:04:44;;;;;;;;;;;;;;;26.15;40.88;100209.41;5243026;27;33721;-86
2021/06/06 02:07:18;;;;;;;;;;;;;;;25.97;41.40;100212.69;5223055;27;35071;-85
2021/06/06 02:10:13;;;;;;;;;;;;;;;25.82;41.65;100214.91;5230809;27;32859;-86
2021/06/06 02:12:46;;;;;;;;;;;;;;;26.38;40.35;100210.03;5250093;27;32436;-86
2021/06/06 02:15:23;;;;;;;;;;;;;;;26.67;39.40;100220.72;5251403;27;34561;-86
2021/06/06 02:17:57;;;;;;;;;;;;;;;26.69;39.19;100217.09;5243454;27;33660;-86
2021/06/06 02:20:38;;;;;;;;;;;;;;;26.15;40.16;100214.75;5229717;27;34367;-86
2021/06/06 02:23:19;;;;;;;;;;;;;;;26.31;39.61;100206.19;5227890;27;32656;-85
2021/06/06 02:25:56;;;;;;;;;;;;;;;26.09;39.91;100216.16;5222954;27;35080;-86
2021/06/06 02:28:34;;;;;;;;;;;;;;;25.89;40.40;100212.53;5222825;27;35422;-86
2021/06/06 02:31:09;;;;;;;;;;;;;;;26.05;40.03;100205.88;5239919;27;34203;-86
2021/06/06 02:34:01;;;;;;;;;;;;;;;26.19;39.75;100216.16;5239745;27;32737;-86
2021/06/06 02:36:33;;;;;;;;;;;;;;;25.91;40.44;100215.06;5239047;27;34215;-85
2021/06/06 02:39:09;;;;;;;;;;;;;;;26.62;38.62;100211.47;5241223;27;35095;-86
2021/06/06 02:41:47;;;;;;;;;;;;;;;26.12;39.90;100220.37;5222570;27;33353;-86
2021/06/06 02:44:29;;;;;;;;;;;;;;;26.22;39.75;100213.22;5239635;27;32643;-87
2021/06/06 02:47:02;;;;;;;;;;;;;;;25.85;40.53;100213.78;5222823;27;34391;-86
2021/06/06 02:49:35;;;;;;;;;;;;;;;26.29;39.67;100217.03;5239353;27;33778;-86
2021/06/06 02:52:20;;;;;;;;;;;;;;;25.59;41.43;100219.56;5223026;27;34370;-86
2021/06/06 02:54:53;;;;;;;;;;;;;;;25.58;41.45;100225.91;5257780;27;33097;-86
2021/06/06 02:57:26;;;;;;;;;;;;;;;26.30;39.88;100215.22;5221974;27;34513;-87
2021/06/06 03:00:12;;;;;;;;;;;;;;;25.62;41.45;100222.00;5224655;27;34395;-86
2021/06/06 03:02:44;;;;;;;;;;;;;;;25.05;42.81;100217.97;5238765;27;33277;-85
2021/06/06 03:05:18;;;;;;;;;;;;;;;25.78;41.17;100223.31;5239144;27;32623;-86
2021/06/06 03:07:52;;;;;;;;;;;;;;;25.97;40.65;100228.72;5222773;27;36812;-86
2021/06/06 03:10:25;;;;;;;;;;;;;;;25.74;41.22;100232.56;5257852;27;35249;-85
2021/06/06 03:12:56;;;;;;;;;;;;;;;25.26;42.48;100228.62;5222038;27;35231;-86
2021/06/06 03:15:29;;;;;;;;;;;;;;;24.92;43.13;100232.31;5240007;27;33512;-86
2021/06/06 03:18:04;;;;;;;;;;;;;;;25.09;42.98;100228.25;5223491;27;33800;-86
2021/06/06 03:20:42;;;;;;;;;;;;;;;25.25;42.52;100237.59;5222443;27;33431;-86
2021/06/06 03:23:16;;;;;;;;;;;;;;;25.58;41.36;100236.56;5222900;27;33137;-86
2021/06/06 03:25:51;;;;;;;;;;;;;;;25.71;41.03;100244.34;5221711;27;33551;-86
2021/06/06 03:28:28;;;;;;;;;;;;;;;25.99;40.45;100236.59;5239851;27;34434;-86
2021/06/06 03:31:03;;;;;;;;;;;;;;;26.05;40.27;100240.59;5222546;27;34862;-86
2021/06/06 03:33:42;;;;;;;;;;;;;;;26.22;39.90;100234.59;5222759;27;35036;-86
2021/06/06 03:36:18;;;;;;;;;;;;;;;26.34;39.59;100230.81;5239595;27;36696;-86
2021/06/06 03:38:51;;;;;;;;;;;;;;;25.99;40.51;100234.78;5222439;27;33555;-86
2021/06/06 03:41:24;;;;;;;;;;;;;;;26.18;39.95;100233.19;5240188;27;34116;-86
2021/06/06 03:43:53;;;;;;;;;;;;;;;26.71;38.88;100236.47;5222220;27;34010;-86
2021/06/06 03:46:29;;;;;;;;;;;;;;;26.48;39.12;100228.72;5222492;27;33587;-86
2021/06/06 03:49:01;;;;;;;;;;;;;;;25.73;40.23;100238.88;5222915;27;34066;-86
2021/06/06 03:51:38;;;;;;;;;;;;;;;26.44;38.52;100232.66;5241475;27;33822;-86
2021/06/06 03:54:13;;;;;;;;;;;;;;;26.00;39.30;100241.78;5239420;27;33555;-86
2021/06/06 03:56:48;;;;;;;;;;;;;;;26.21;38.61;100238.25;5222683;27;32556;-86
2021/06/06 03:59:20;;;;;;;;;;;;;;;26.36;38.20;100243.19;5231537;27;34554;-86
2021/06/06 04:01:48;;;;;;;;;;;;;;;27.08;36.70;100250.00;5267465;27;34520;-85
2021/06/06 04:04:21;;;;;;;;;;;;;;;26.77;37.47;100250.16;5230663;27;33116;-86
2021/06/06 04:06:55;;;;;;;;;;;;;;;26.93;36.92;100252.25;5242027;27;34711;-87
2021/06/06 04:09:34;;;;;;;;;;;;;;;26.28;38.18;100257.22;5224277;27;34348;-86
2021/06/06 04:12:07;;;;;;;;;;;;;;;27.16;36.46;100258.19;5221496;27;33496;-86
2021/06/06 04:14:42;;;;;;;;;;;;;;;26.32;38.17;100259.47;5222560;27;34408;-86
2021/06/06 04:17:13;;;;;;;;;;;;;;;26.26;37.90;100264.53;5221886;27;33587;-86
2021/06/06 04:19:47;;;;;;;;;;;;;;;26.77;37.04;100268.88;5241043;27;37229;-86
2021/06/06 04:22:19;;;;;;;;;;;;;;;26.57;37.62;100269.81;5238665;27;33551;-86
2021/06/06 04:24:54;;;;;;;;;;;;;;;26.71;37.32;100273.91;5239720;27;33786;-86
2021/06/06 04:27:26;;;;;;;;;;;;;;;26.94;37.03;100270.00;5239160;27;33117;-86
2021/06/06 04:29:59;;;;;;;;;;;;;;;26.76;37.44;100263.66;5222633;27;33704;-87
2021/06/06 04:32:30;;;;;;;;;;;;;;;26.87;37.26;100276.03;5222109;27;33508;-86
2021/06/06 04:35:08;;;;;;;;;;;;;;;26.70;37.92;100272.19;5240878;27;34541;-86
2021/06/06 04:37:37;;;;;;;;;;;;;;;26.93;37.41;100268.31;5239195;27;32973;-85
2021/06/06 04:40:12;;;;;;;;;;;;;;;27.20;37.09;100269.41;5239476;27;34259;-87
2021/06/06 04:42:45;;;;;;;;;;;;;;;26.97;37.33;100272.38;5238470;27;33635;-86
2021/06/06 04:45:16;;;;;;;;;;;;;;;26.79;37.83;100276.75;5238422;27;34860;-86
2021/06/06 04:47:47;;;;;;;;;;;;;;;26.71;37.50;100273.91;5257170;27;34101;-86
2021/06/06 04:50:24;;;;;;;;;;;;;;;27.26;36.33;100279.56;5223679;27;33710;-86
2021/06/06 04:52:58;;;;;;;;;;;;;;;27.36;36.00;100279.53;5222612;27;33418;-86
2021/06/06 04:55:30;;;;;;;;;;;;;;;27.44;35.87;100278.84;5238790;27;35390;-86
2021/06/06 04:58:02;;;;;;;;;;;;;;;27.59;35.48;100279.22;5222561;27;32286;-85
2021/06/06 05:00:35;;;;;;;;;;;;;;;27.26;36.32;100284.06;5222075;27;34298;-86
2021/06/06 05:03:08;;;;;;;;;;;;;;;27.31;36.35;100288.00;5222168;27;35193;-87
2021/06/06 05:05:44;;;;;;;;;;;;;;;27.27;36.49;100293.75;5222583;27;33702;-87
2021/06/06 05:08:15;;;;;;;;;;;;;;;27.21;36.44;100289.81;5221491;27;32395;-86
2021/06/06 05:10:49;;;;;;;;;;;;;;;27.77;34.90;100287.34;5223046;27;33451;-86
2021/06/06 05:13:20;;;;;;;;;;;;;;;26.89;36.66;100293.63;5238823;27;33598;-87
2021/06/06 05:15:52;;;;;;;;;;;;;;;26.92;36.58;100296.00;5221316;27;34498;-87
2021/06/06 05:18:26;;;;;;;;;;;;;;;27.53;35.34;100301.22;5222667;27;32353;-86
2021/06/06 05:21:00;;;;;;;;;;;;;;;26.92;36.50;100292.50;5239066;27;34061;-86
2021/06/06 05:23:29;;;;;;;;;;;;;;;26.82;36.81;100297.87;5238286;27;33391;-86
2021/06/06 05:26:07;;;;;;;;;;;;;;;26.68;37.34;100307.09;5240898;27;34612;-86
2021/06/06 05:28:38;;;;;;;;;;;;;;;27.08;36.70;100306.16;5222415;27;31283;-86
2021/06/06 05:31:13;;;;;;;;;;;;;;;26.73;36.72;100299.53;5222556;27;35571;-87
2021/06/06 05:33:41;;;;;;;;;;;;;;;26.90;36.60;100300.69;5239408;27;32989;-86
2021/06/06 05:36:17;;;;;;;;;;;;;;;27.32;36.04;100305.75;5241434;27;33188;-86
2021/06/06 05:38:51;;;;;;;;;;;;;;;27.73;35.21;100307.38;5241740;27;33266;-87
2021/06/06 05:41:24;;;;;;;;;;;;;;;27.21;36.03;100308.56;5223212;27;33236;-87
2021/06/06 05:43:55;;;;;;;;;;;;;;;27.65;35.03;100306.25;5222695;27;33597;-86
2021/06/06 05:46:29;;;;;;;;;;;;;;;28.02;34.58;100309.16;5244251;27;34111;-86
2021/06/06 05:49:07;;;;;;;;;;;;;;;27.61;35.10;100315.56;5250770;27;33658;-86
2021/06/06 05:51:39;;;;;;;;;;;;;;;28.23;33.80;100315.09;5250560;27;34204;-86
2021/06/06 05:54:13;;;;;;;;;;;;;;;26.95;36.47;100318.97;5249641;27;35054;-86
2021/06/06 05:56:46;;;;;;;;;;;;;;;26.77;36.78;100316.13;5240045;27;33295;-86
2021/06/06 05:59:16;;;;;;;;;;;;;;;27.10;36.17;100314.06;5223500;27;33918;-86
2021/06/06 06:01:49;;;;;;;;;;;;;;;27.23;35.83;100316.44;5224959;27;34464;-87
2021/06/06 06:04:27;;;;;;;;;;;;;;;27.60;35.32;100321.94;5240921;27;34539;-86
2021/06/06 06:06:57;;;;;;;;;;;;;;;27.42;35.48;100320.97;5221433;27;33294;-86
2021/06/06 06:09:36;;;;;;;;;;;;;;;28.29;34.00;100319.88;5240563;27;32394;-87
2021/06/06 06:12:07;;;;;;;;;;;;;;;26.94;36.40;100318.13;5222577;27;33113;-86
2021/06/06 06:14:43;;;;;;;;;;;;;;;27.43;35.36;100315.47;5241289;27;35079;-87
2021/06/06 06:17:16;;;;;;;;;;;;;;;27.71;34.63;100314.69;5241775;27;33347;-86
2021/06/06 06:19:54;;;;;;;;;;;;;;;28.37;33.53;100304.87;5240837;27;32955;-87
2021/06/06 06:22:26;;;;;;;;;;;;;;;28.33;33.60;100313.22;5222204;27;34709;-87
2021/06/06 06:24:59;;;;;;;;;;;;;;;27.18;35.37;100316.88;5222820;27;33790;-86
2021/06/06 06:27:32;;;;;;;;;;;;;;;27.46;35.11;100307.16;5223022;27;33428;-86
2021/06/06 06:30:07;;;;;;;;;;;;;;;28.13;34.02;100312.50;5241154;27;32549;-87
2021/06/06 06:32:41;;;;;;;;;;;;;;;27.93;34.53;100313.50;5223200;27;35252;-87
2021/06/06 06:35:18;;;;;;;;;;;;;;;27.87;34.91;100309.59;5224312;27;35113;-86
2021/06/06 06:37:51;;;;;;;;;;;;;;;28.04;34.43;100310.69;5239958;27;33684;-86
2021/06/06 06:40:25;;;;;;;;;;;;;;;28.76;32.56;100310.00;5238870;27;32711;-86
2021/06/06 06:42:58;;;;;;;;;;;;;;;28.82;32.72;100309.41;5222394;27;34369;-86
2021/06/06 06:45:34;;;;;;;;;;;;;;;29.42;31.51;100307.94;5240231;27;34751;-86
2021/06/06 06:48:08;;;;;;;;;;;;;;;29.37;31.59;100318.31;5222696;27;32963;-86
2021/06/06 06:50:49;;;;;;;;;;;;;;;28.32;32.96;100305.31;5239183;27;33086;-86
2021/06/06 06:53:23;;;;;;;;;;;;;;;28.47;33.28;100316.41;5239719;27;33807;-87
2021/06/06 06:55:55;;;;;;;;;;;;;;;28.88;32.83;100319.53;5241620;27;33286;-88
2021/06/06 06:58:29;;;;;;;;;;;;;;;28.48;33.76;100318.94;5223695;27;34347;-86
2021/06/06 07:01:01;;;;;;;;;;;;;;;28.77;32.95;100320.62;5222648;27;34331;-86
2021/06/06 07:03:37;;;;;;;;;;;;;;;29.26;31.83;100322.91;5240063;27;34246;-87
2021/06/06 07:06:12;;;;;;;;;;;;;;;29.09;32.25;100316.56;5223662;27;33380;-87
2021/06/06 07:08:42;;;;;;;;;;;;;;;29.43;31.74;100320.38;5222043;27;34349;-86
2021/06/06 07:11:16;;;;;;;;;;;;;;;29.19;32.03;100321.00;5222795;27;34207;-86
2021/06/06 07:13:49;;;;;;;;;;;;;;;28.98;32.16;100322.16;5240930;27;34998;-86
2021/06/06 07:16:20;;;;;;;;;;;;;;;28.17;34.03;100321.03;5222629;27;35218;-87
2021/06/06 07:18:54;;;;;;;;;;;;;;;28.95;32.53;100315.25;5258068;27;33841;-86
2021/06/06 07:21:26;;;;;;;;;;;;;;;28.63;33.17;100315.75;5240440;27;32583;-87
2021/06/06 07:34:40;;;;;;;;;;;;;;;29.15;32.41;100304.34;5357801;26;914540;-84
2021/06/06 07:37:11;;;;;;;;;;;;;;;29.15;32.41;100304.34;5377389;26;33210;-85
2021/06/06 07:39:53;;;;;;;;;;;;;;;28.78;33.13;100305.34;5369399;26;35998;-84
2021/06/06 07:42:30;;;;;;;;;;;;;;;28.82;33.29;100307.56;5384207;26;33654;-85
2021/06/06 07:45:05;;;;;;;;;;;;;;;29.62;31.67;100305.91;5362367;26;34282;-84
2021/06/06 07:47:41;;;;;;;;;;;;;;;30.06;30.81;100307.69;5373230;26;32622;-85
2021/06/06 07:50:14;;;;;;;;;;;;;;;29.56;31.98;100307.38;5374238;26;34532;-84
2021/06/06 07:52:46;;;;;;;;;;;;;;;28.96;32.64;100302.69;5355433;26;34268;-84
2021/06/06 07:55:19;;;;;;;;;;;;;;;29.85;31.48;100297.31;5374017;26;34253;-85
2021/06/06 07:57:50;;;;;;;;;;;;;;;29.74;31.00;100301.97;5354994;26;33762;-86
2021/06/06 08:00:30;;;;;;;;;;;;;;;30.63;29.60;100299.00;5356538;26;34381;-84
2021/06/06 08:03:02;;;;;;;;;;;;;;;30.76;28.96;100307.44;5373483;26;35577;-87
2021/06/06 08:05:34;;;;;;;;;;;;;;;30.92;28.80;100313.84;5373367;26;32944;-89
2021/06/06 08:08:08;;;;;;;;;;;;;;;30.97;28.41;100314.19;5372704;26;32198;-87
2021/06/06 08:10:42;;;;;;;;;;;;;;;30.96;28.06;100318.72;5354937;26;34450;-87
2021/06/06 08:13:14;;;;;;;;;;;;;;;31.27;27.85;100320.81;5354651;26;34182;-87
2021/06/06 08:15:45;;;;;;;;;;;;;;;30.65;28.79;100324.72;5357240;26;35696;-87
2021/06/06 08:18:27;;;;;;;;;;;;;;;30.61;28.68;100322.56;5332757;26;33964;-88
2021/06/06 08:21:11;;;;;;;;;;;;;;;30.85;27.72;100321.75;5333711;26;33175;-87
2021/06/06 08:23:45;;;;;;;;;;;;;;;30.40;28.64;100323.78;5333342;26;33569;-88
2021/06/06 08:26:22;;;;;;;;;;;;;;;30.85;27.76;100316.38;5351383;26;33793;-87
2021/06/06 08:28:59;;;;;;;;;;;;;;;31.47;27.15;100315.91;5334007;26;34765;-88
2021/06/06 08:31:31;;;;;;;;;;;;;;;31.24;27.29;100318.44;5333066;26;34819;-87
2021/06/06 08:34:05;;;;;;;;;;;;;;;31.47;27.68;100313.22;5331986;26;32885;-88
2021/06/06 08:36:36;;;;;;;;;;;;;;;32.40;26.42;100307.41;5327209;26;33784;-87
2021/06/06 08:39:10;;;;;;;;;;;;;;;32.32;26.09;100307.47;5328055;26;33269;-87
2021/06/06 08:41:45;;;;;;;;;;;;;;;31.40;26.15;100312.19;5345814;26;33399;-87
2021/06/06 08:44:17;;;;;;;;;;;;;;;32.01;25.28;100306.38;5344736;26;33419;-87
2021/06/06 08:46:59;;;;;;;;;;;;;;;32.27;25.42;100305.28;5346543;26;33559;-87
2021/06/06 08:49:40;;;;;;;;;;;;;;;32.41;25.86;100298.31;5328617;26;32125;-89
2021/06/06 08:52:14;;;;;;;;;;;;;;;31.68;26.79;100300.25;5327444;26;34221;-87
2021/06/06 08:55:05;;;;;;;;;;;;;;;31.85;26.71;100301.87;5345088;26;34403;-87
2021/06/06 08:57:46;;;;;;;;;;;;;;;32.50;25.57;100302.66;5327986;26;33354;-87
2021/06/06 09:00:21;;;;;;;;;;;;;;;32.51;25.49;100312.41;5346298;26;33806;-87
2021/06/06 09:03:10;;;;;;;;;;;;;;;31.86;26.42;100308.97;5344866;26;33097;-87
2021/06/06 09:05:42;;;;;;;;;;;;;;;31.96;26.26;100306.91;5345158;26;34746;-86
2021/06/06 09:08:22;;;;;;;;;;;;;;;32.50;25.66;100307.22;5346206;26;33484;-86
2021/06/06 09:10:58;;;;;;;;;;;;;;;31.54;27.29;100305.28;5328981;26;33834;-85
2021/06/06 09:13:30;;;;;;;;;;;;;;;31.88;26.71;100308.78;5345331;26;34198;-84
2021/06/06 09:16:13;;;;;;;;;;;;;;;32.25;26.05;100304.63;5345785;26;33187;-85
2021/06/06 09:18:47;;;;;;;;;;;;;;;31.41;27.15;100300.44;5345724;26;35509;-84
2021/06/06 09:21:19;;;;;;;;;;;;;;;31.75;26.53;100296.69;5347073;26;33238;-85
2021/06/06 09:24:02;;;;;;;;;;;;;;;31.44;27.81;100302.75;5329362;26;33018;-86
2021/06/06 09:26:35;;;;;;;;;;;;;;;31.44;27.27;100305.47;5346073;26;34294;-86
2021/06/06 09:29:22;;;;;;;;;;;;;;;31.98;26.32;100299.47;5348659;26;32615;-86
2021/06/06 09:31:53;;;;;;;;;;;;;;;32.22;26.00;100310.38;5349188;26;33318;-85
2021/06/06 09:34:23;;;;;;;;;;;;;;;32.44;25.77;100306.91;5337748;26;34757;-85
2021/06/06 09:37:05;;;;;;;;;;;;;;;32.60;25.43;100305.09;5352341;26;34402;-85
2021/06/06 09:39:40;;;;;;;;;;;;;;;32.98;25.05;100297.13;5327995;26;34363;-85
2021/06/06 09:42:27;;;;;;;;;;;;;;;33.50;24.33;100300.06;5330232;26;33612;-85
2021/06/06 09:45:01;;;;;;;;;;;;;;;33.56;24.17;100285.81;5345006;26;34571;-86
2021/06/06 09:47:36;;;;;;;;;;;;;;;33.13;24.83;100292.62;5327892;26;34621;-85
2021/06/06 09:50:11;;;;;;;;;;;;;;;33.42;25.35;100284.78;5328090;26;32930;-85
2021/06/06 09:52:41;;;;;;;;;;;;;;;33.27;25.22;100296.41;5326830;26;32643;-86
2021/06/06 09:55:15;;;;;;;;;;;;;;;33.46;24.66;100300.44;5327289;26;34999;-86
2021/06/06 09:57:48;;;;;;;;;;;;;;;32.82;25.53;100294.56;5363525;26;33789;-85
2021/06/06 10:00:19;;;;;;;;;;;;;;;32.80;25.58;100290.19;5345302;26;34854;-85
2021/06/06 10:03:00;;;;;;;;;;;;;;;32.40;26.10;100296.62;5345154;26;34651;-86
2021/06/06 10:05:32;;;;;;;;;;;;;;;32.00;26.68;100296.59;5327355;26;34219;-86
2021/06/06 10:08:23;;;;;;;;;;;;;;;32.16;26.74;100298.41;5327684;26;33658;-86
2021/06/06 10:10:53;;;;;;;;;;;;;;;32.65;25.71;100291.94;5343944;26;33528;-86
2021/06/06 10:13:30;;;;;;;;;;;;;;;32.41;26.09;100292.91;5327095;26;34216;-86
2021/06/06 10:16:02;;;;;;;;;;;;;;;32.53;25.84;100286.09;5327346;26;35001;-85
2021/06/06 10:18:36;;;;;;;;;;;;;;;31.93;26.68;100299.16;5346344;26;34647;-85
2021/06/06 10:21:11;;;;;;;;;;;;;;;32.53;25.89;100291.50;5345226;26;32948;-87
2021/06/06 10:23:43;;;;;;;;;;;;;;;32.91;25.24;100288.91;5326968;26;33697;-86
2021/06/06 10:26:16;;;;;;;;;;;;;;;31.75;27.18;100287.75;5344658;26;33626;-86
2021/06/06 10:28:51;;;;;;;;;;;;;;;32.85;25.54;100286.09;5345326;26;33730;-86
2021/06/06 10:31:30;;;;;;;;;;;;;;;34.13;23.72;100279.78;5345546;26;33281;-86
2021/06/06 10:34:17;;;;;;;;;;;;;;;34.79;22.93;100291.56;5345539;26;33410;-87
2021/06/06 10:36:47;;;;;;;;;;;;;;;35.11;22.96;100281.25;5363692;26;34552;-85
2021/06/06 10:39:27;;;;;;;;;;;;;;;35.11;22.71;100283.94;5362293;26;34362;-86
2021/06/06 10:42:01;;;;;;;;;;;;;;;34.82;22.85;100280.31;5346025;26;33697;-86
2021/06/06 10:44:33;;;;;;;;;;;;;;;34.99;22.26;100280.94;5344333;26;32983;-86
2021/06/06 10:47:21;;;;;;;;;;;;;;;35.18;22.51;100279.44;5345364;26;34919;-85
2021/06/06 10:49:58;;;;;;;;;;;;;;;35.32;22.12;100282.25;5328269;26;34226;-85
2021/06/06 10:52:35;;;;;;;;;;;;;;;35.29;21.93;100278.06;5346062;26;33549;-86
2021/06/06 10:55:22;;;;;;;;;;;;;;;35.83;21.39;100264.88;5344216;26;33347;-86
2021/06/06 10:57:51;;;;;;;;;;;;;;;35.71;21.64;100275.44;5343906;26;33789;-85
2021/06/06 11:00:25;;;;;;;;;;;;;;;35.93;21.22;100276.22;5345322;26;34488;-86
2021/06/06 11:02:58;;;;;;;;;;;;;;;35.61;21.27;100273.94;5327292;26;32895;-86
2021/06/06 11:05:39;;;;;;;;;;;;;;;36.41;20.36;100275.38;5344384;26;32234;-86
2021/06/06 11:08:35;;;;;;;;;;;;;;;36.35;20.38;100276.19;5345669;26;33736;-85
2021/06/06 11:11:31;;;;;;;;;;;;;;;36.24;20.70;100270.28;5327447;26;35637;-85
2021/06/06 11:14:14;;;;;;;;;;;;;;;35.89;21.07;100267.66;5361069;26;33550;-85
2021/06/06 11:16:52;;;;;;;;;;;;;;;35.06;22.44;100275.56;5345230;26;33764;-86
2021/06/06 11:19:21;;;;;;;;;;;;;;;36.11;21.09;100275.66;5327075;26;32908;-85
2021/06/06 11:21:57;;;;;;;;;;;;;;;37.01;20.01;100271.94;5355084;26;33928;-86
2021/06/06 11:24:57;;;;;;;;;;;;;;;35.87;21.63;100277.00;5336242;26;33762;-85
2021/06/06 11:27:33;;;;;;;;;;;;;;;36.14;20.73;100264.41;5342625;26;33835;-86
2021/06/06 11:30:02;;;;;;;;;;;;;;;35.38;21.68;100259.81;5326813;26;34329;-85
2021/06/06 11:32:33;;;;;;;;;;;;;;;35.04;21.73;100258.72;5363016;26;33767;-86
2021/06/06 11:35:05;;;;;;;;;;;;;;;35.57;21.05;100255.56;5344489;26;34000;-86
2021/06/06 11:37:38;;;;;;;;;;;;;;;35.89;20.88;100245.97;5362394;26;32552;-86
2021/06/06 11:40:28;;;;;;;;;;;;;;;36.13;20.79;100242.91;5326936;26;32842;-86
2021/06/06 11:42:58;;;;;;;;;;;;;;;36.38;20.54;100246.78;5362749;26;34416;-86
2021/06/06 11:45:31;;;;;;;;;;;;;;;35.44;21.73;100256.31;5345039;26;34142;-86
2021/06/06 11:48:11;;;;;;;;;;;;;;;35.98;21.27;100241.22;5345329;26;33274;-85
2021/06/06 11:50:44;;;;;;;;;;;;;;;36.90;20.30;100243.53;5326171;26;33498;-84
2021/06/06 11:53:26;;;;;;;;;;;;;;;35.83;21.45;100238.59;5326305;26;33699;-85
2021/06/06 11:56:05;;;;;;;;;;;;;;;36.00;21.49;100238.28;5344173;26;34422;-86
2021/06/06 11:58:39;;;;;;;;;;;;;;;35.72;21.43;100237.28;5345018;26;33488;-86
2021/06/06 12:01:22;;;;;;;;;;;;;;;35.64;21.00;100239.34;5326243;26;33503;-86
2021/06/06 12:04:05;;;;;;;;;;;;;;;35.94;20.89;100229.94;5363069;26;34304;-86
2021/06/06 12:06:34;;;;;;;;;;;;;;;35.90;20.96;100225.94;5326243;26;34382;-86
2021/06/06 12:09:14;;;;;;;;;;;;;;;35.45;21.54;100231.72;5326767;26;32803;-86
2021/06/06 12:11:42;;;;;;;;;;;;;;;35.56;21.47;100214.06;5344769;26;34263;-85
2021/06/06 12:14:19;;;;;;;;;;;;;;;35.87;21.36;100226.34;5363832;26;34214;-86
2021/06/06 12:16:49;;;;;;;;;;;;;;;34.87;22.47;100217.53;5326740;26;34453;-87
2021/06/06 12:19:18;;;;;;;;;;;;;;;35.50;21.97;100220.31;5327520;26;34400;-86
2021/06/06 12:21:48;;;;;;;;;;;;;;;35.61;21.97;100206.19;5326869;26;33587;-86
2021/06/06 12:24:18;;;;;;;;;;;;;;;34.64;22.55;100210.44;5346551;26;34605;-85
2021/06/06 12:27:04;;;;;;;;;;;;;;;34.98;22.00;100211.59;5346776;26;34759;-85
2021/06/06 12:29:36;;;;;;;;;;;;;;;35.18;21.87;100208.19;5345583;26;32696;-85
2021/06/06 12:32:12;;;;;;;;;;;;;;;35.73;21.39;100197.50;5327871;26;33269;-86
2021/06/06 12:34:43;;;;;;;;;;;;;;;36.78;20.07;100197.97;5363845;26;35252;-86
2021/06/06 12:37:15;;;;;;;;;;;;;;;36.60;20.69;100201.31;5326972;26;33374;-86
2021/06/06 12:39:44;;;;;;;;;;;;;;;35.24;22.26;100196.56;5326966;26;34018;-86
2021/06/06 12:42:12;;;;;;;;;;;;;;;35.44;22.12;100196.72;5327023;26;34461;-86
2021/06/06 12:44:48;;;;;;;;;;;;;;;36.35;20.86;100200.22;5345815;26;34865;-86
2021/06/06 12:47:20;;;;;;;;;;;;;;;36.05;20.83;100192.44;5345393;26;34705;-85
2021/06/06 12:49:52;;;;;;;;;;;;;;;35.90;20.85;100196.13;5345147;26;32987;-86
2021/06/06 12:52:23;;;;;;;;;;;;;;;35.03;21.50;100192.87;5327383;26;32751;-85
2021/06/06 12:54:52;;;;;;;;;;;;;;;35.42;20.74;100188.81;5346089;26;34063;-85
2021/06/06 12:57:46;;;;;;;;;;;;;;;35.48;20.74;100189.87;5363765;26;34217;-86
2021/06/06 13:00:24;;;;;;;;;;;;;;;35.13;21.04;100200.69;5366693;26;33909;-86
2021/06/06 13:02:55;;;;;;;;;;;;;;;35.64;20.48;100187.88;5336896;26;34547;-86
2021/06/06 13:05:41;;;;;;;;;;;;;;;35.09;21.11;100194.81;5339240;26;33905;-85
2021/06/06 13:08:25;;;;;;;;;;;;;;;35.35;20.81;100192.50;5332244;26;34313;-85
2021/06/06 13:10:56;;;;;;;;;;;;;;;34.87;21.20;100194.00;5345255;26;34230;-86
2021/06/06 13:13:28;;;;;;;;;;;;;;;35.95;19.95;100190.09;5345350;26;35037;-86
2021/06/06 13:15:55;;;;;;;;;;;;;;;35.95;20.07;100192.81;5326737;26;35245;-85
2021/06/06 13:18:26;;;;;;;;;;;;;;;36.76;19.41;100188.38;5327045;26;32992;-86
2021/06/06 13:20:56;;;;;;;;;;;;;;;36.38;19.71;100194.38;5345064;26;33777;-85
2021/06/06 13:23:30;;;;;;;;;;;;;;;36.34;19.92;100195.84;5328362;26;35723;-85
2021/06/06 13:26:05;;;;;;;;;;;;;;;36.35;19.71;100192.09;5327008;26;34567;-86